Time,TemperatureF,DewpointF,PressureIn,WindDirection,WindDirectionDegrees,WindSpeedMPH,WindSpeedGustMPH,Humidity,HourlyPrecipIn,Conditions,Clouds,dailyrainin,SoftwareType,DateUTC
2013-05-01 05:24:00,65.5,45.8,29.44,East,90,0.0,0.0,49,0.00,,---,0.00,VWS V14.01,2013-05-01 03:24:00,
2013-05-01 05:29:00,65.5,45.8,29.44,East,90,0.0,0.0,49,0.00,,---,0.00,VWS V14.01,2013-05-01 03:29:00,
2013-05-01 05:34:00,65.3,45.7,29.44,East,90,0.0,0.0,49,0.00,,---,0.00,VWS V14.01,2013-05-01 03:34:00,
2013-05-01 05:40:00,65.3,46.2,29.44,East,90,0.0,0.0,50,0.00,,---,0.00,VWS V14.01,2013-05-01 03:40:00,
2013-05-01 05:45:00,65.1,45.5,29.44,East,90,0.0,0.0,49,0.00,,---,0.00,VWS V14.01,2013-05-01 03:45:00,
2013-05-01 05:50:00,65.3,45.7,29.44,East,90,0.0,0.0,49,0.00,,---,0.00,VWS V14.01,2013-05-01 03:50:00,
2013-05-01 05:55:00,65.1,46.0,29.44,East,90,0.0,0.0,50,0.00,,---,0.00,VWS V14.01,2013-05-01 03:55:00,
2013-05-01 06:00:00,65.1,46.0,29.44,East,90,0.0,0.0,50,0.00,,---,0.00,VWS V14.01,2013-05-01 04:00:00,
2013-05-01 06:01:00,65.1,46.0,29.44,East,90,0.0,0.0,50,0.00,,---,0.00,VWS V14.01,2013-05-01 04:01:00,
2013-05-01 06:03:00,65.1,46.0,29.44,East,90,0.0,0.0,50,0.00,,---,0.00,VWS V14.01,2013-05-01 04:03:00,
2013-05-01 06:08:00,65.1,46.0,29.44,East,90,0.0,0.0,50,0.00,,---,0.00,VWS V14.01,2013-05-01 04:08:00,
2013-05-01 06:13:00,64.9,45.9,29.44,East,90,0.0,0.0,50,0.00,,---,0.00,VWS V14.01,2013-05-01 04:13:00,
2013-05-01 10:05:00,83.5,52.2,29.44,South,180,2.7,2.7,34,0.00,,---,0.00,VWS V14.01,2013-05-01 08:05:00,
2013-05-01 10:10:00,83.5,52.2,29.44,South,180,0.9,2.5,34,0.00,,---,0.00,VWS V14.01,2013-05-01 08:10:00,
2013-05-01 10:15:00,83.8,52.5,29.44,West,270,2.5,2.5,34,0.00,,---,0.00,VWS V14.01,2013-05-01 08:15:00,
2013-05-01 10:20:00,84.0,52.7,29.47,SSE,158,2.9,2.9,34,0.00,,---,0.00,VWS V14.01,2013-05-01 08:20:00,
2013-05-01 10:25:00,84.4,52.2,29.47,WSW,248,3.1,3.4,33,0.00,,---,0.00,VWS V14.01,2013-05-01 08:25:00,
2013-05-01 10:30:00,84.0,52.7,29.47,West,270,1.6,1.6,34,0.00,,---,0.00,VWS V14.01,2013-05-01 08:30:00,
2013-05-01 10:35:00,84.9,52.6,29.47,West,270,2.7,3.4,33,0.00,,---,0.00,VWS V14.01,2013-05-01 08:35:00,
2013-05-01 10:41:00,84.6,52.3,29.47,WNW,292,3.6,3.8,33,0.00,,---,0.00,VWS V14.01,2013-05-01 08:41:00,
2013-05-01 10:46:00,85.3,52.1,29.47,West,270,1.6,3.1,32,0.00,,---,0.00,VWS V14.01,2013-05-01 08:46:00,
2013-05-01 10:51:00,85.1,51.1,29.47,SW,225,3.6,3.6,31,0.00,,---,0.00,VWS V14.01,2013-05-01 08:51:00,
2013-05-01 10:56:00,85.3,50.4,29.47,SW,225,3.8,5.4,30,0.00,,---,0.00,VWS V14.01,2013-05-01 08:56:00,
2013-05-01 11:01:00,85.6,50.7,29.47,ESE,112,2.7,4.0,30,0.00,,---,0.00,VWS V14.01,2013-05-01 09:01:00,
2013-05-01 11:06:00,86.5,51.5,29.47,West,270,3.6,3.6,30,0.00,,---,0.00,VWS V14.01,2013-05-01 09:06:00,
2013-05-01 11:11:00,86.9,52.7,29.47,South,180,3.1,3.1,31,0.00,,---,0.00,VWS V14.01,2013-05-01 09:11:00,
2013-05-01 11:16:00,86.5,51.5,29.47,SW,225,2.7,2.7,30,0.00,,---,0.00,VWS V14.01,2013-05-01 09:16:00,
2013-05-01 11:21:00,86.9,51.8,29.47,WSW,248,2.7,2.7,30,0.00,,---,0.00,VWS V14.01,2013-05-01 09:21:00,
2013-05-01 11:26:00,87.1,52.8,29.47,East,90,0.0,0.0,31,0.00,,---,0.00,VWS V14.01,2013-05-01 09:26:00,
2013-05-01 11:31:00,87.6,52.4,29.47,WSW,248,0.9,0.9,30,0.00,,---,0.00,VWS V14.01,2013-05-01 09:31:00,
2013-05-01 11:36:00,86.0,51.9,29.47,SW,225,4.7,5.4,31,0.00,,---,0.00,VWS V14.01,2013-05-01 09:36:00,
2013-05-01 11:42:00,86.5,51.5,29.47,SW,225,1.1,2.9,30,0.00,,---,0.00,VWS V14.01,2013-05-01 09:42:00,
2013-05-01 11:47:00,87.8,51.6,29.47,East,90,2.9,2.9,29,0.00,,---,0.00,VWS V14.01,2013-05-01 09:47:00,
2013-05-01 11:52:00,88.2,52.8,29.47,East,90,0.9,2.0,30,0.00,,---,0.00,VWS V14.01,2013-05-01 09:52:00,
2013-05-01 11:57:00,88.7,53.3,29.47,WNW,292,1.3,2.7,30,0.00,,---,0.00,VWS V14.01,2013-05-01 09:57:00,
2013-05-01 12:02:00,88.5,53.2,29.47,NE,45,2.5,2.5,30,0.00,,---,0.00,VWS V14.01,2013-05-01 10:02:00,
2013-05-01 12:07:00,88.0,52.7,29.47,NNW,338,0.0,1.6,30,0.00,,---,0.00,VWS V14.01,2013-05-01 10:07:00,
2013-05-01 12:12:00,88.7,52.4,29.47,West,270,3.1,3.1,29,0.00,,---,0.00,VWS V14.01,2013-05-01 10:12:00,
2013-05-01 12:17:00,88.5,51.3,29.47,SW,225,2.5,2.5,28,0.00,,---,0.00,VWS V14.01,2013-05-01 10:17:00,
2013-05-01 12:22:00,90.1,52.7,29.47,ENE,68,0.0,0.9,28,0.00,,---,0.00,VWS V14.01,2013-05-01 10:22:00,
2013-05-01 12:27:00,91.4,52.8,29.47,East,90,3.8,4.0,27,0.00,,---,0.00,VWS V14.01,2013-05-01 10:27:00,
2013-05-01 12:32:00,90.5,52.0,29.44,NE,45,0.0,1.1,27,0.00,,---,0.00,VWS V14.01,2013-05-01 10:32:00,
2013-05-01 12:37:00,88.5,51.3,29.44,East,90,0.0,2.5,28,0.00,,---,0.00,VWS V14.01,2013-05-01 10:37:00,
2013-05-01 12:42:00,88.9,51.6,29.44,NNE,22,0.0,0.0,28,0.00,,---,0.00,VWS V14.01,2013-05-01 10:42:00,
2013-05-01 12:48:00,86.9,47.9,29.44,East,90,4.3,4.3,26,0.00,,---,0.00,VWS V14.01,2013-05-01 10:48:00,
2013-05-01 12:53:00,85.6,46.8,29.44,NE,45,1.1,3.4,26,0.00,,---,0.00,VWS V14.01,2013-05-01 10:53:00,
2013-05-01 12:58:00,86.4,46.4,29.44,SE,135,0.0,3.1,25,0.00,,---,0.00,VWS V14.01,2013-05-01 10:58:00,
2013-05-01 13:03:00,88.3,47.0,29.44,West,270,5.4,5.4,24,0.00,,---,0.00,VWS V14.01,2013-05-01 11:03:00,
2013-05-01 13:08:00,90.0,49.5,29.44,West,270,0.0,0.0,25,0.00,,---,0.00,VWS V14.01,2013-05-01 11:08:00,
2013-05-01 13:13:00,90.5,46.5,29.44,West,270,0.0,2.5,22,0.00,,---,0.00,VWS V14.01,2013-05-01 11:13:00,
2013-05-01 13:18:00,91.0,47.0,29.47,North,0,2.9,2.9,22,0.00,,---,0.00,VWS V14.01,2013-05-01 11:18:00,
2013-05-01 13:23:00,90.1,46.2,29.47,SW,225,5.4,6.0,22,0.00,,---,0.00,VWS V14.01,2013-05-01 11:23:00,
2013-05-01 13:28:00,87.1,43.7,29.47,WSW,248,9.6,9.6,22,0.00,,---,0.00,VWS V14.01,2013-05-01 11:28:00,
2013-05-01 13:33:00,85.5,41.1,29.47,West,270,10.5,10.5,21,0.00,,---,0.00,VWS V14.01,2013-05-01 11:33:00,
2013-05-01 13:38:00,85.1,42.0,29.47,SE,135,4.0,7.8,22,0.00,,---,0.00,VWS V14.01,2013-05-01 11:38:00,
2013-05-01 13:44:00,85.3,39.7,29.47,West,270,6.5,6.5,20,0.00,,---,0.00,VWS V14.01,2013-05-01 11:44:00,
2013-05-01 13:49:00,85.8,40.2,29.50,South,180,3.4,3.4,20,0.00,,---,0.00,VWS V14.01,2013-05-01 11:49:00,
2013-05-01 13:54:00,86.7,40.9,29.50,WSW,248,0.9,1.6,20,0.00,,---,0.00,VWS V14.01,2013-05-01 11:54:00,
2013-05-01 13:59:00,87.3,42.6,29.50,SW,225,2.7,2.7,21,0.00,,---,0.00,VWS V14.01,2013-05-01 11:59:00,
2013-05-01 14:04:00,88.2,40.8,29.47,West,270,4.0,4.0,19,0.00,,---,0.00,VWS V14.01,2013-05-01 12:04:00,
2013-05-01 14:09:00,87.3,40.0,29.47,West,270,6.0,6.0,19,0.00,,---,0.00,VWS V14.01,2013-05-01 12:09:00,
2013-05-01 14:14:00,87.3,30.5,29.47,West,270,5.6,5.6,13,0.00,,---,0.00,VWS V14.01,2013-05-01 12:14:00,
2013-05-01 14:19:00,87.8,19.2,29.50,WSW,248,3.8,4.3,8,0.00,,---,0.00,VWS V14.01,2013-05-01 12:19:00,
2013-05-01 14:25:00,88.0,-10.7,29.50,SE,135,4.0,6.5,2,0.00,,---,0.00,VWS V14.01,2013-05-01 12:25:00,
2013-05-01 14:30:00,88.0,-10.7,29.50,SSW,202,3.6,4.0,2,0.00,,---,0.00,VWS V14.01,2013-05-01 12:30:00,
2013-05-01 14:35:00,88.0,-10.7,29.47,West,270,5.4,5.4,2,0.00,,---,0.00,VWS V14.01,2013-05-01 12:35:00,
2013-05-01 14:40:00,86.0,-11.9,29.47,South,180,3.8,6.5,2,0.00,,---,0.00,VWS V14.01,2013-05-01 12:40:00,
2013-05-01 14:45:00,84.9,10.6,29.47,SE,135,3.4,5.4,6,0.00,,---,0.00,VWS V14.01,2013-05-01 12:45:00,
2013-05-01 14:50:00,86.0,29.5,29.47,West,270,2.9,3.6,13,0.00,,---,0.00,VWS V14.01,2013-05-01 12:50:00,
2013-05-01 14:55:00,86.0,11.4,29.47,West,270,5.6,6.5,6,0.00,,---,0.00,VWS V14.01,2013-05-01 12:55:00,
2013-05-01 15:00:00,85.6,29.2,29.47,West,270,6.0,6.0,13,0.00,,---,0.00,VWS V14.01,2013-05-01 13:00:00,
2013-05-01 15:05:00,84.7,10.4,29.47,SW,225,5.8,5.8,6,0.00,,---,0.00,VWS V14.01,2013-05-01 13:05:00,
2013-05-01 15:11:00,84.9,17.1,29.47,NW,315,3.4,3.4,8,0.00,,---,0.00,VWS V14.01,2013-05-01 13:11:00,
2013-05-01 15:16:00,86.5,25.9,29.47,East,90,2.7,2.7,11,0.00,,---,0.00,VWS V14.01,2013-05-01 13:16:00,
2013-05-01 15:21:00,86.5,35.1,29.47,NNW,338,1.3,1.3,16,0.00,,---,0.00,VWS V14.01,2013-05-01 13:21:00,
2013-05-01 15:26:00,85.8,29.4,29.47,NE,45,0.0,0.9,13,0.00,,---,0.00,VWS V14.01,2013-05-01 13:26:00,
2013-05-01 15:31:00,85.5,37.2,29.47,West,270,0.0,0.0,18,0.00,,---,0.00,VWS V14.01,2013-05-01 13:31:00,
2013-05-01 15:36:00,85.3,37.0,29.47,East,90,2.0,2.0,18,0.00,,---,0.00,VWS V14.01,2013-05-01 13:36:00,
2013-05-01 15:41:00,84.6,37.8,29.47,East,90,3.8,3.8,19,0.00,,---,0.00,VWS V14.01,2013-05-01 13:41:00,
2013-05-01 15:46:00,83.5,36.9,29.47,NE,45,1.6,1.6,19,0.00,,---,0.00,VWS V14.01,2013-05-01 13:46:00,
2013-05-01 15:52:00,83.7,32.8,29.44,NE,45,0.0,0.0,16,0.00,,---,0.00,VWS V14.01,2013-05-01 13:52:00,
2013-05-01 15:57:00,84.2,24.0,29.44,South,180,0.0,0.0,11,0.00,,---,0.00,VWS V14.01,2013-05-01 13:57:00,
2013-05-01 16:02:00,84.0,37.4,29.44,East,90,0.9,0.9,19,0.00,,---,0.00,VWS V14.01,2013-05-01 14:02:00,
2013-05-01 16:07:00,83.3,36.8,29.44,East,90,0.0,1.6,19,0.00,,---,0.00,VWS V14.01,2013-05-01 14:07:00,
2013-05-01 16:12:00,83.8,32.9,29.44,NNE,22,0.0,0.0,16,0.00,,---,0.00,VWS V14.01,2013-05-01 14:12:00,
2013-05-01 16:17:00,83.8,32.9,29.44,WSW,248,0.0,0.9,16,0.00,,---,0.00,VWS V14.01,2013-05-01 14:17:00,
2013-05-01 16:22:00,83.7,23.6,29.44,NW,315,0.0,0.0,11,0.00,,---,0.00,VWS V14.01,2013-05-01 14:22:00,
2013-05-01 16:27:00,83.7,32.8,29.44,East,90,0.0,0.0,16,0.00,,---,0.00,VWS V14.01,2013-05-01 14:27:00,
2013-05-01 16:32:00,83.7,29.5,29.44,SW,225,0.0,0.0,14,0.00,,---,0.00,VWS V14.01,2013-05-01 14:32:00,
2013-05-01 16:37:00,83.8,29.6,29.44,East,90,0.0,0.0,14,0.00,,---,0.00,VWS V14.01,2013-05-01 14:37:00,
2013-05-01 16:42:00,83.7,29.5,29.44,NE,45,0.0,0.0,14,0.00,,---,0.00,VWS V14.01,2013-05-01 14:42:00,
2013-05-01 16:48:00,83.5,32.6,29.44,SE,135,0.0,0.0,16,0.00,,---,0.00,VWS V14.01,2013-05-01 14:48:00,
2013-05-01 16:53:00,83.1,36.6,29.44,WSW,248,0.0,0.0,19,0.00,,---,0.00,VWS V14.01,2013-05-01 14:53:00,
2013-05-01 16:58:00,82.9,36.5,29.44,West,270,2.0,2.0,19,0.00,,---,0.00,VWS V14.01,2013-05-01 14:58:00,
2013-05-01 17:03:00,82.0,38.3,29.44,West,270,1.3,1.3,21,0.00,,---,0.00,VWS V14.01,2013-05-01 15:03:00,
2013-05-01 17:08:00,81.9,39.3,29.44,ESE,112,0.0,0.0,22,0.00,,---,0.00,VWS V14.01,2013-05-01 15:08:00,
2013-05-01 17:13:00,81.7,39.2,29.44,SE,135,0.0,0.0,22,0.00,,---,0.00,VWS V14.01,2013-05-01 15:13:00,
2013-05-01 17:18:00,81.1,43.0,29.44,SW,225,0.0,0.0,26,0.00,,---,0.00,VWS V14.01,2013-05-01 15:18:00,
2013-05-01 17:23:00,80.6,46.3,29.44,South,180,0.0,0.0,30,0.00,,---,0.00,VWS V14.01,2013-05-01 15:23:00,
2013-05-01 17:28:00,79.9,46.6,29.44,ESE,112,0.0,0.0,31,0.00,,---,0.00,VWS V14.01,2013-05-01 15:28:00,
2013-05-01 17:33:00,79.5,46.3,29.44,West,270,0.0,0.0,31,0.00,,---,0.00,VWS V14.01,2013-05-01 15:33:00,
2013-05-01 17:38:00,79.3,46.1,29.44,East,90,0.0,0.0,31,0.00,,---,0.00,VWS V14.01,2013-05-01 15:38:00,
2013-05-01 17:43:00,79.3,46.1,29.44,West,270,0.0,0.0,31,0.00,,---,0.00,VWS V14.01,2013-05-01 15:43:00,
2013-05-01 17:49:00,79.0,45.8,29.41,West,270,0.0,0.0,31,0.00,,---,0.00,VWS V14.01,2013-05-01 15:49:00,
2013-05-01 17:53:00,79.0,45.8,29.41,SE,135,0.0,0.0,31,0.00,,---,0.00,VWS V14.01,2013-05-01 15:53:00,
2013-05-01 17:59:00,79.0,45.8,29.41,East,90,0.0,0.0,31,0.00,,---,0.00,VWS V14.01,2013-05-01 15:59:00,
2013-05-01 18:04:00,79.3,45.2,29.41,West,270,0.0,0.0,30,0.00,,---,0.00,VWS V14.01,2013-05-01 16:04:00,
2013-05-01 18:09:00,79.3,45.2,29.41,South,180,0.0,0.0,30,0.00,,---,0.00,VWS V14.01,2013-05-01 16:09:00,
2013-05-01 18:14:00,78.8,45.6,29.41,East,90,0.0,0.0,31,0.00,,---,0.00,VWS V14.01,2013-05-01 16:14:00,
2013-05-01 18:19:00,78.3,45.2,29.41,West,270,1.1,1.1,31,0.00,,---,0.00,VWS V14.01,2013-05-01 16:19:00,
2013-05-01 18:24:00,77.9,45.7,29.41,SW,225,0.9,0.9,32,0.00,,---,0.00,VWS V14.01,2013-05-01 16:24:00,
2013-05-01 18:29:00,77.9,44.9,29.41,West,270,0.9,0.9,31,0.00,,---,0.00,VWS V14.01,2013-05-01 16:29:00,
2013-05-01 18:34:00,77.9,44.9,29.41,ESE,112,0.0,0.0,31,0.00,,---,0.00,VWS V14.01,2013-05-01 16:34:00,
2013-05-01 18:39:00,77.9,44.9,29.41,East,90,0.0,0.0,31,0.00,,---,0.00,VWS V14.01,2013-05-01 16:39:00,
2013-05-01 18:44:00,77.7,44.7,29.41,SSW,202,0.0,0.0,31,0.00,,---,0.00,VWS V14.01,2013-05-01 16:44:00,
2013-05-01 18:50:00,77.7,44.7,29.41,West,270,0.9,1.3,31,0.00,,---,0.00,VWS V14.01,2013-05-01 16:50:00,